PROFILE

 METAR AND TAF INFORMATION
ADDS - METARS form results

(0616 UTC 22 September 2019)
http://aviationweather.gov/metar/data/
 
LIME 220550Z 33004KT 9999 -RA BKN060 15/13 Q1019 NOSIG
LIME 220520Z VRB01KT 9999 -RA BKN060 15/13 Q1019 NOSIG
TAF LIME 220500Z 2206/2306 VRB05KT 9999 BKN060 TEMPO 2206/2209 RA TEMPO 2303/2306 4000 SHRA BKN012 BKN040 

 AIRPORT MAP

 RUNWAY INFORMATION
Runway 10 Runway length 9636 ft Runway width 148 ft
Runway elevation 779 ft Runway displaced threshold 312 ft Runway heading 105
Runway 28 Runway length 9636 ft Runway width 148 ft
Runway elevation 754 ft Runway displaced threshold 427 ft Runway heading 285
Runway 12 Runway length 2552 ft Runway width 59 ft
Runway elevation 782 ft Runway displaced threshold 210 ft Runway heading 121
Runway 30 Runway length 2552 ft Runway width 59 ft
Runway elevation 782 ft Runway displaced threshold 328 ft Runway heading 301

 AIRPORT FREQUENCIES
Type APP Name MILANO APP Frequency 126.75 MHZ
Type ATIS Name ATIS Frequency 112.6 MHZ
Type GND Name ORIO GND Frequency 120.5 MHZ
Type TWR Name ORIO TWR Frequency 126.5 MHZ

 AIRPORT NEAR NAVIGATION AIDS
Type VOR-DME Name Orio Al Serio Frequency 112600 KHZ
Type NDB Name Orio Al Serio Frequency 377 KHZ